Aviation Digital Data Service (ADDS)

Output produced by METARs form (1812 UTC 14 August 2018)
found at http://www.aviationweather.gov/adds/metars/
 
HCMH 141300Z 21014KT 9999 FEW030 29/13 Q1017